Time;durP1;ratioP1;P1;durP2;ratioP2;P2;SDS_P1;SDS_P2;PMS_P1;PMS_P2;Temp;Humidity;BMP_temperature;BMP_pressure;BME280_temperature;BME280_humidity;BME280_pressure;Samples;Min_cycle;Max_cycle;Signal;HPM_P1;HPM_P2
2022/09/21 00:01:46;;;;;;;;;;;23.50;51.80;;;;;;378423;290;362752;-56
2022/09/21 00:03:48;;;;;;;;;;;23.50;51.80;;;;;;378025;290;362592;-51
2022/09/21 00:05:50;;;;;;;;;;;23.50;51.90;;;;;;379971;289;362102;-55
2022/09/21 00:07:51;;;;;;;;;;;23.50;51.80;;;;;;381204;288;362308;-55
2022/09/21 00:09:53;;;;;;;;;;;23.50;53.10;;;;;;376932;291;363733;-53
2022/09/21 00:11:55;;;;;;;;;;;23.60;51.90;;;;;;378171;290;362385;-56
2022/09/21 00:13:59;;;;;;;;;;;23.70;51.50;;;;;;378169;290;402398;-54
2022/09/21 00:16:01;;;;;;;;;;;23.80;51.40;;;;;;376206;291;400211;-51
2022/09/21 00:18:03;;;;;;;;;;;23.80;51.20;;;;;;378411;290;362057;-52
2022/09/21 00:20:05;;;;;;;;;;;23.80;51.20;;;;;;377741;291;362283;-53
2022/09/21 00:22:06;;;;;;;;;;;23.90;51.00;;;;;;378220;290;401385;-55
2022/09/21 00:24:08;;;;;;;;;;;23.90;51.00;;;;;;377813;290;362666;-53
2022/09/21 00:26:10;;;;;;;;;;;23.90;51.00;;;;;;377619;291;362570;-49
2022/09/21 00:28:12;;;;;;;;;;;23.90;51.00;;;;;;377363;291;363256;-53
2022/09/21 00:30:14;;;;;;;;;;;23.90;51.00;;;;;;376783;291;362706;-53
2022/09/21 00:32:16;;;;;;;;;;;23.90;51.00;;;;;;379338;290;362843;-51
2022/09/21 00:34:17;;;;;;;;;;;23.80;51.10;;;;;;377054;291;363143;-54
2022/09/21 00:36:19;;;;;;;;;;;23.80;51.10;;;;;;377737;289;362541;-54
2022/09/21 00:38:21;;;;;;;;;;;23.80;51.10;;;;;;380031;289;363665;-53
2022/09/21 00:40:23;;;;;;;;;;;23.80;51.10;;;;;;376973;290;362964;-51
2022/09/21 00:42:24;;;;;;;;;;;23.80;51.10;;;;;;377235;290;363070;-52
2022/09/21 00:44:26;;;;;;;;;;;23.80;51.10;;;;;;379491;290;362621;-53
2022/09/21 00:46:28;;;;;;;;;;;23.80;51.10;;;;;;377130;291;362667;-54
2022/09/21 00:48:29;;;;;;;;;;;23.80;51.10;;;;;;377755;290;362272;-51
2022/09/21 00:50:31;;;;;;;;;;;23.80;51.20;;;;;;379915;290;362632;-53
2022/09/21 00:52:33;;;;;;;;;;;23.80;51.20;;;;;;377256;291;362512;-50
2022/09/21 00:54:35;;;;;;;;;;;23.80;51.20;;;;;;378452;290;362153;-53
2022/09/21 00:56:37;;;;;;;;;;;23.70;51.30;;;;;;378982;290;361997;-51
2022/09/21 00:58:39;;;;;;;;;;;23.70;51.20;;;;;;379004;290;362291;-53
2022/09/21 01:00:41;;;;;;;;;;;23.70;51.30;;;;;;376929;291;363472;-53
2022/09/21 01:02:43;;;;;;;;;;;23.70;51.30;;;;;;379518;289;362277;-52
2022/09/21 01:04:45;;;;;;;;;;;23.70;51.30;;;;;;378288;290;361901;-53
2022/09/21 01:06:46;;;;;;;;;;;23.70;51.40;;;;;;378672;290;363121;-52
2022/09/21 01:08:51;;;;;;;;;;;23.70;51.30;;;;;;381984;288;362648;-50
2022/09/21 01:10:52;;;;;;;;;;;23.70;51.40;;;;;;378502;290;400960;-51
2022/09/21 01:12:53;;;;;;;;;;;23.70;51.40;;;;;;377791;290;363326;-53
2022/09/21 01:14:55;;;;;;;;;;;23.60;51.40;;;;;;379578;290;362780;-52
2022/09/21 01:17:01;;;;;;;;;;;23.60;51.40;;;;;;377256;291;362226;-52
2022/09/21 01:19:00;;;;;;;;;;;23.60;51.50;;;;;;377811;290;400996;-50
2022/09/21 01:21:02;;;;;;;;;;;23.60;51.50;;;;;;378220;290;362208;-54
2022/09/21 01:23:04;;;;;;;;;;;23.60;51.60;;;;;;378063;291;362322;-53
2022/09/21 01:25:06;;;;;;;;;;;23.60;51.50;;;;;;378731;290;362232;-50
2022/09/21 01:27:07;;;;;;;;;;;23.60;51.60;;;;;;377905;290;363871;-52
2022/09/21 01:29:09;;;;;;;;;;;23.60;51.60;;;;;;379026;290;362087;-52
2022/09/21 01:31:11;;;;;;;;;;;23.60;51.50;;;;;;377815;290;401235;-49
2022/09/21 01:33:13;;;;;;;;;;;23.60;51.60;;;;;;377818;290;363563;-50
2022/09/21 01:35:14;;;;;;;;;;;23.60;51.60;;;;;;377841;291;361968;-52
2022/09/21 01:37:16;;;;;;;;;;;23.60;51.80;;;;;;377363;291;363694;-53
2022/09/21 01:39:19;;;;;;;;;;;23.60;51.80;;;;;;376904;291;362336;-49
2022/09/21 01:41:21;;;;;;;;;;;23.50;51.70;;;;;;378397;290;363598;-50
2022/09/21 01:43:24;;;;;;;;;;;23.50;51.80;;;;;;378937;290;362251;-49
2022/09/21 01:45:26;;;;;;;;;;;23.50;51.80;;;;;;378595;288;399229;-49
2022/09/21 01:47:30;;;;;;;;;;;23.50;51.70;;;;;;380694;288;362334;-51
2022/09/21 01:49:30;;;;;;;;;;;23.50;51.80;;;;;;376687;291;362024;-52
2022/09/21 01:51:32;;;;;;;;;;;23.50;51.80;;;;;;378831;290;362166;-50
2022/09/21 01:53:34;;;;;;;;;;;23.50;51.80;;;;;;377243;291;362387;-51
2022/09/21 01:55:38;;;;;;;;;;;23.50;51.80;;;;;;378017;290;361965;-51
2022/09/21 01:57:39;;;;;;;;;;;23.50;51.90;;;;;;377812;290;361955;-51
2022/09/21 01:59:42;;;;;;;;;;;23.50;51.90;;;;;;379976;290;362580;-52
2022/09/21 02:01:43;;;;;;;;;;;23.50;51.90;;;;;;376764;291;399180;-52
2022/09/21 02:03:45;;;;;;;;;;;23.50;51.90;;;;;;377879;290;362386;-54
2022/09/21 02:05:47;;;;;;;;;;;23.50;52.00;;;;;;379863;290;362754;-53
2022/09/21 02:07:49;;;;;;;;;;;23.50;52.00;;;;;;377302;291;362753;-53
2022/09/21 02:09:50;;;;;;;;;;;23.40;52.00;;;;;;378363;289;363997;-50
2022/09/21 02:11:52;;;;;;;;;;;23.40;52.00;;;;;;379278;290;362390;-51
2022/09/21 02:13:54;;;;;;;;;;;23.40;52.00;;;;;;378517;290;399023;-53
2022/09/21 02:15:56;;;;;;;;;;;23.40;52.20;;;;;;376732;291;361984;-53
2022/09/21 02:17:58;;;;;;;;;;;23.40;52.10;;;;;;379404;290;363613;-51
2022/09/21 02:20:01;;;;;;;;;;;23.40;52.10;;;;;;378062;290;362404;-49
2022/09/21 02:22:03;;;;;;;;;;;23.40;52.10;;;;;;377360;290;399939;-52
2022/09/21 02:24:05;;;;;;;;;;;23.40;52.20;;;;;;378299;290;362334;-48
2022/09/21 02:26:07;;;;;;;;;;;23.40;52.20;;;;;;377400;292;362702;-54
2022/09/21 02:28:09;;;;;;;;;;;23.40;52.30;;;;;;378216;290;362397;-50
2022/09/21 02:30:11;;;;;;;;;;;23.40;52.30;;;;;;377401;290;362454;-50
2022/09/21 02:32:12;;;;;;;;;;;23.40;52.30;;;;;;379006;289;362278;-52
2022/09/21 02:34:15;;;;;;;;;;;23.40;52.30;;;;;;376613;290;362021;-52
2022/09/21 02:36:18;;;;;;;;;;;23.40;52.30;;;;;;377732;290;362860;-48
2022/09/21 02:38:19;;;;;;;;;;;23.40;52.30;;;;;;376393;291;363254;-48
2022/09/21 02:40:22;;;;;;;;;;;23.40;52.40;;;;;;377426;292;362875;-54
2022/09/21 02:42:26;;;;;;;;;;;23.40;52.40;;;;;;377436;290;399272;-48
2022/09/21 02:44:31;;;;;;;;;;;23.40;52.40;;;;;;377045;290;400595;-47
2022/09/21 02:46:30;;;;;;;;;;;23.40;52.40;;;;;;379847;288;400100;-53
2022/09/21 02:48:32;;;;;;;;;;;23.40;52.40;;;;;;376126;291;362536;-51
2022/09/21 02:50:34;;;;;;;;;;;23.30;52.40;;;;;;376985;292;362259;-55
2022/09/21 02:52:36;;;;;;;;;;;23.30;52.40;;;;;;376508;292;362009;-49
2022/09/21 02:54:37;;;;;;;;;;;23.30;52.40;;;;;;377846;290;363080;-54
2022/09/21 02:56:39;;;;;;;;;;;23.30;52.50;;;;;;378356;290;362020;-51
2022/09/21 02:58:41;;;;;;;;;;;23.40;52.50;;;;;;377885;290;362834;-51
2022/09/21 03:00:42;;;;;;;;;;;23.30;52.50;;;;;;376105;292;362721;-52
2022/09/21 03:02:45;;;;;;;;;;;23.30;52.40;;;;;;376914;292;363156;-53
2022/09/21 03:04:46;;;;;;;;;;;23.30;52.60;;;;;;376836;291;401085;-49
2022/09/21 03:06:48;;;;;;;;;;;23.40;52.60;;;;;;376137;292;362751;-50
2022/09/21 03:08:50;;;;;;;;;;;23.30;52.60;;;;;;377025;292;362310;-55
2022/09/21 03:10:52;;;;;;;;;;;23.40;52.70;;;;;;377313;291;362526;-53
2022/09/21 03:12:55;;;;;;;;;;;23.30;52.70;;;;;;375803;292;362104;-53
2022/09/21 03:14:57;;;;;;;;;;;23.30;52.70;;;;;;376223;291;362439;-53
2022/09/21 03:16:59;;;;;;;;;;;23.30;52.80;;;;;;377421;291;362574;-52
2022/09/21 03:19:01;;;;;;;;;;;23.30;52.70;;;;;;376200;291;399117;-54
2022/09/21 03:21:02;;;;;;;;;;;23.30;52.80;;;;;;376232;292;363177;-48
2022/09/21 03:23:04;;;;;;;;;;;23.30;52.80;;;;;;378772;290;363169;-52
2022/09/21 03:25:08;;;;;;;;;;;23.30;52.80;;;;;;378091;290;362489;-50
2022/09/21 03:27:09;;;;;;;;;;;23.30;52.80;;;;;;377618;290;400063;-48
2022/09/21 03:29:11;;;;;;;;;;;23.30;52.90;;;;;;377641;290;362338;-50
2022/09/21 03:31:13;;;;;;;;;;;23.30;52.80;;;;;;379819;290;362280;-55
2022/09/21 03:33:15;;;;;;;;;;;23.30;53.00;;;;;;380759;288;362215;-49
2022/09/21 03:35:16;;;;;;;;;;;23.30;53.00;;;;;;376557;291;362258;-48
2022/09/21 03:37:18;;;;;;;;;;;23.30;53.00;;;;;;379614;290;362343;-52
2022/09/21 03:39:20;;;;;;;;;;;23.30;53.00;;;;;;377067;291;362224;-48
2022/09/21 03:41:22;;;;;;;;;;;23.30;53.00;;;;;;378401;290;362230;-54
2022/09/21 03:43:24;;;;;;;;;;;23.30;53.00;;;;;;377753;291;362009;-49
2022/09/21 03:45:26;;;;;;;;;;;23.30;53.00;;;;;;378652;290;362545;-51
2022/09/21 03:47:28;;;;;;;;;;;23.30;53.00;;;;;;378153;290;362402;-51
2022/09/21 03:49:29;;;;;;;;;;;23.30;53.00;;;;;;378910;290;362385;-51
2022/09/21 03:51:31;;;;;;;;;;;23.30;53.00;;;;;;379095;290;363291;-51
2022/09/21 03:53:33;;;;;;;;;;;23.30;53.00;;;;;;376799;291;361976;-52
2022/09/21 03:55:35;;;;;;;;;;;23.30;53.00;;;;;;379067;290;362016;-51
2022/09/21 03:57:37;;;;;;;;;;;23.30;53.10;;;;;;379064;290;362834;-54
2022/09/21 03:59:39;;;;;;;;;;;23.30;53.00;;;;;;376663;291;362357;-54
2022/09/21 04:01:41;;;;;;;;;;;23.30;53.10;;;;;;379531;290;363336;-52
2022/09/21 04:03:42;;;;;;;;;;;23.30;53.10;;;;;;378093;290;363482;-54
2022/09/21 04:05:44;;;;;;;;;;;23.30;53.10;;;;;;377785;290;362666;-52
2022/09/21 04:07:46;;;;;;;;;;;23.30;53.10;;;;;;378982;290;363113;-52
2022/09/21 04:09:48;;;;;;;;;;;23.30;53.10;;;;;;379014;290;362717;-52
2022/09/21 04:11:51;;;;;;;;;;;23.30;53.10;;;;;;376820;290;362088;-52
2022/09/21 04:13:55;;;;;;;;;;;23.30;53.10;;;;;;377471;290;362043;-50
2022/09/21 04:15:56;;;;;;;;;;;23.30;53.00;;;;;;378702;290;362811;-50
2022/09/21 04:17:58;;;;;;;;;;;23.30;53.10;;;;;;377976;291;363809;-53
2022/09/21 04:20:00;;;;;;;;;;;23.30;53.10;;;;;;378817;290;363248;-53
2022/09/21 04:22:01;;;;;;;;;;;23.30;53.10;;;;;;376538;291;362730;-49
2022/09/21 04:24:03;;;;;;;;;;;23.30;53.10;;;;;;378996;290;362928;-50
2022/09/21 04:26:05;;;;;;;;;;;23.30;53.10;;;;;;379010;290;362468;-54
2022/09/21 04:28:06;;;;;;;;;;;23.30;53.10;;;;;;380691;288;362093;-54
2022/09/21 04:30:08;;;;;;;;;;;23.30;53.00;;;;;;377793;291;363521;-48
2022/09/21 04:32:10;;;;;;;;;;;23.30;53.10;;;;;;378222;290;362740;-49
2022/09/21 04:34:11;;;;;;;;;;;23.30;53.10;;;;;;378105;290;363050;-50
2022/09/21 04:36:13;;;;;;;;;;;23.30;53.10;;;;;;379890;290;362722;-49
2022/09/21 04:38:15;;;;;;;;;;;23.30;53.10;;;;;;381008;288;362407;-48
2022/09/21 04:40:17;;;;;;;;;;;23.30;53.10;;;;;;376572;291;362454;-51
2022/09/21 04:42:18;;;;;;;;;;;23.30;53.10;;;;;;379141;289;362358;-50
2022/09/21 04:44:20;;;;;;;;;;;23.30;53.20;;;;;;378750;290;363533;-52
2022/09/21 04:46:22;;;;;;;;;;;23.30;53.10;;;;;;380554;288;362642;-52
2022/09/21 04:48:24;;;;;;;;;;;23.30;53.10;;;;;;378067;291;362722;-51
2022/09/21 04:50:25;;;;;;;;;;;23.30;53.00;;;;;;378667;289;362305;-49
2022/09/21 04:52:27;;;;;;;;;;;23.30;53.00;;;;;;376536;291;363059;-52
2022/09/21 04:54:29;;;;;;;;;;;23.30;52.90;;;;;;379497;290;362330;-51
2022/09/21 04:56:31;;;;;;;;;;;23.30;53.10;;;;;;378191;290;362500;-51
2022/09/21 04:58:32;;;;;;;;;;;23.30;53.10;;;;;;378567;290;362073;-50
2022/09/21 05:00:34;;;;;;;;;;;23.30;53.10;;;;;;378064;291;362494;-51
2022/09/21 05:02:36;;;;;;;;;;;23.30;53.10;;;;;;378272;290;362377;-52
2022/09/21 05:04:37;;;;;;;;;;;23.30;53.00;;;;;;378611;288;362346;-49
2022/09/21 05:06:39;;;;;;;;;;;23.30;53.00;;;;;;377972;291;362361;-49
2022/09/21 05:11:01;;;;;;;;;;;23.30;53.00;;;;;;378516;290;401224;-56
2022/09/21 05:13:02;;;;;;;;;;;23.30;53.10;;;;;;380649;288;363677;-54
2022/09/21 05:15:04;;;;;;;;;;;23.30;53.00;;;;;;378051;291;362431;-53
2022/09/21 05:17:06;;;;;;;;;;;23.30;53.00;;;;;;378697;290;362408;-56
2022/09/21 05:19:08;;;;;;;;;;;23.30;53.00;;;;;;378049;290;362358;-55
2022/09/21 05:21:09;;;;;;;;;;;23.30;53.10;;;;;;378994;290;362356;-55
2022/09/21 05:23:11;;;;;;;;;;;23.30;53.00;;;;;;378866;290;362233;-57
2022/09/21 05:25:13;;;;;;;;;;;23.30;53.00;;;;;;380157;288;363217;-56
2022/09/21 05:27:14;;;;;;;;;;;23.30;53.00;;;;;;376955;292;362601;-54
2022/09/21 05:29:16;;;;;;;;;;;23.30;52.90;;;;;;377524;290;363026;-52
2022/09/21 05:31:19;;;;;;;;;;;23.30;52.90;;;;;;377958;290;362356;-55
2022/09/21 05:33:20;;;;;;;;;;;23.30;53.00;;;;;;378944;290;363900;-54
2022/09/21 05:35:22;;;;;;;;;;;23.30;52.90;;;;;;378245;290;363336;-54
2022/09/21 05:37:24;;;;;;;;;;;23.30;52.90;;;;;;377960;290;362318;-55
2022/09/21 05:39:26;;;;;;;;;;;23.30;52.90;;;;;;377333;292;362245;-50
2022/09/21 05:41:27;;;;;;;;;;;23.30;52.90;;;;;;377953;290;362309;-54
2022/09/21 05:43:29;;;;;;;;;;;23.30;53.00;;;;;;377799;290;363656;-53
2022/09/21 05:45:31;;;;;;;;;;;23.30;53.00;;;;;;377407;292;362580;-51
2022/09/21 05:47:33;;;;;;;;;;;23.30;53.00;;;;;;376021;292;362513;-51
2022/09/21 05:49:34;;;;;;;;;;;23.30;53.10;;;;;;380245;288;362407;-52
2022/09/21 05:51:36;;;;;;;;;;;23.30;53.00;;;;;;377393;292;362341;-54
2022/09/21 05:53:38;;;;;;;;;;;23.30;53.00;;;;;;378219;290;362472;-56
2022/09/21 05:55:39;;;;;;;;;;;23.30;52.90;;;;;;376275;290;362292;-53
2022/09/21 05:57:41;;;;;;;;;;;23.30;53.00;;;;;;379021;290;362380;-55
2022/09/21 05:59:44;;;;;;;;;;;23.30;53.00;;;;;;376607;292;363154;-50
2022/09/21 06:01:45;;;;;;;;;;;23.30;53.10;;;;;;374701;292;362830;-53
2022/09/21 06:03:48;;;;;;;;;;;23.30;53.10;;;;;;380808;288;362439;-57
2022/09/21 06:05:50;;;;;;;;;;;23.30;53.00;;;;;;380089;288;400189;-52
2022/09/21 06:07:52;;;;;;;;;;;23.30;53.10;;;;;;376167;292;362876;-55
2022/09/21 06:09:54;;;;;;;;;;;23.30;53.10;;;;;;379076;290;363801;-56
2022/09/21 06:11:56;;;;;;;;;;;23.30;53.10;;;;;;377525;290;362513;-54
2022/09/21 06:13:57;;;;;;;;;;;23.30;53.10;;;;;;377490;290;362688;-52
2022/09/21 06:15:59;;;;;;;;;;;23.30;53.10;;;;;;377469;292;362454;-55
2022/09/21 06:18:01;;;;;;;;;;;23.30;53.00;;;;;;376166;292;362050;-56
2022/09/21 06:20:03;;;;;;;;;;;23.30;53.00;;;;;;380224;288;363064;-48
2022/09/21 06:22:05;;;;;;;;;;;23.30;53.10;;;;;;377390;292;363005;-53
2022/09/21 06:24:06;;;;;;;;;;;23.30;53.00;;;;;;376500;292;362492;-54
2022/09/21 06:26:08;;;;;;;;;;;23.30;53.00;;;;;;377919;290;362522;-55
2022/09/21 06:28:10;;;;;;;;;;;23.30;53.10;;;;;;378092;290;363531;-53
2022/09/21 06:30:12;;;;;;;;;;;23.30;53.00;;;;;;378201;290;363649;-52
2022/09/21 06:32:13;;;;;;;;;;;23.30;53.10;;;;;;376706;291;364901;-55
2022/09/21 06:34:15;;;;;;;;;;;23.30;53.20;;;;;;381067;289;362458;-51
2022/09/21 06:36:17;;;;;;;;;;;23.30;53.00;;;;;;376860;291;362343;-49
2022/09/21 06:38:18;;;;;;;;;;;23.30;53.00;;;;;;376939;291;362092;-53
2022/09/21 06:40:20;;;;;;;;;;;23.30;53.10;;;;;;377305;292;362452;-52
2022/09/21 06:42:22;;;;;;;;;;;23.30;53.10;;;;;;376466;292;363974;-53
2022/09/21 06:44:24;;;;;;;;;;;23.30;53.10;;;;;;376018;292;362168;-57
2022/09/21 06:46:26;;;;;;;;;;;23.30;53.10;;;;;;378143;291;362659;-55
2022/09/21 06:48:27;;;;;;;;;;;23.30;53.10;;;;;;377384;291;363223;-54
2022/09/21 06:50:29;;;;;;;;;;;23.30;53.10;;;;;;376923;291;362542;-52
2022/09/21 06:52:31;;;;;;;;;;;23.30;53.10;;;;;;377990;291;362578;-54
2022/09/21 06:54:34;;;;;;;;;;;23.30;53.10;;;;;;375622;292;401230;-55
2022/09/21 06:56:35;;;;;;;;;;;23.30;53.00;;;;;;376079;292;362877;-51
2022/09/21 06:58:37;;;;;;;;;;;23.30;53.00;;;;;;378075;291;363211;-53
2022/09/21 07:00:39;;;;;;;;;;;23.30;53.10;;;;;;376449;292;362445;-51
2022/09/21 07:02:40;;;;;;;;;;;23.30;53.10;;;;;;376970;291;362433;-56
2022/09/21 07:04:42;;;;;;;;;;;23.30;53.10;;;;;;378204;291;362386;-53
2022/09/21 07:06:44;;;;;;;;;;;23.30;53.10;;;;;;376904;291;399121;-53
2022/09/21 07:08:46;;;;;;;;;;;23.30;53.10;;;;;;376074;292;362407;-56
2022/09/21 07:10:48;;;;;;;;;;;23.30;53.10;;;;;;377249;292;363868;-53
2022/09/21 07:12:51;;;;;;;;;;;23.30;53.20;;;;;;376403;292;363072;-52
2022/09/21 07:14:52;;;;;;;;;;;23.30;53.10;;;;;;376113;292;362460;-52
2022/09/21 07:16:54;;;;;;;;;;;23.30;53.10;;;;;;377379;291;362626;-54
2022/09/21 07:20:29;;;;;;;;;;;23.30;53.00;;;;;;387472;283;361999;-54
2022/09/21 07:22:31;;;;;;;;;;;23.30;52.90;;;;;;383434;285;361996;-56
2022/09/21 07:24:32;;;;;;;;;;;23.30;53.10;;;;;;384720;285;363871;-52
2022/09/21 07:26:36;;;;;;;;;;;23.40;53.40;;;;;;383777;285;362019;-54
2022/09/21 07:28:37;;;;;;;;;;;23.40;53.60;;;;;;381146;287;399919;-55
2022/09/21 07:30:39;;;;;;;;;;;23.40;53.50;;;;;;382907;286;362359;-52
2022/09/21 07:32:41;;;;;;;;;;;23.40;53.40;;;;;;383187;286;363295;-53
2022/09/21 07:34:43;;;;;;;;;;;23.40;53.40;;;;;;382215;287;362343;-53
2022/09/21 07:36:44;;;;;;;;;;;23.40;53.50;;;;;;381441;287;362199;-54
2022/09/21 07:38:46;;;;;;;;;;;23.40;53.40;;;;;;383014;287;362583;-56
2022/09/21 07:40:48;;;;;;;;;;;23.50;53.80;;;;;;381274;288;362202;-53
2022/09/21 07:43:56;;;;;;;;;;;23.50;53.40;;;;;;387639;283;361923;-55
2022/09/21 07:45:57;;;;;;;;;;;23.60;53.10;;;;;;380309;288;361799;-55
2022/09/21 07:47:59;;;;;;;;;;;23.60;53.10;;;;;;381573;288;363016;-57
2022/09/21 07:50:01;;;;;;;;;;;23.60;52.80;;;;;;379120;290;363428;-57
2022/09/21 07:52:03;;;;;;;;;;;23.70;52.90;;;;;;380267;288;363628;-57
2022/09/21 07:54:05;;;;;;;;;;;23.70;52.80;;;;;;381166;288;362068;-52
2022/09/21 07:56:07;;;;;;;;;;;23.70;52.80;;;;;;380099;288;401208;-53
2022/09/21 08:00:31;;;;;;;;;;;23.70;52.70;;;;;;380165;288;401094;-53
2022/09/21 08:02:31;;;;;;;;;;;23.70;52.60;;;;;;380053;288;399499;-55
2022/09/21 08:04:33;;;;;;;;;;;23.70;52.60;;;;;;378291;290;363684;-57
2022/09/21 08:06:35;;;;;;;;;;;23.70;52.60;;;;;;381475;288;362448;-58
2022/09/21 08:08:38;;;;;;;;;;;23.70;52.60;;;;;;380587;288;362585;-53
2022/09/21 08:10:40;;;;;;;;;;;23.70;52.50;;;;;;379909;288;362601;-55
2022/09/21 08:12:43;;;;;;;;;;;23.70;52.60;;;;;;380314;288;362348;-56
2022/09/21 08:14:44;;;;;;;;;;;23.70;52.40;;;;;;380369;288;362400;-54
2022/09/21 08:16:46;;;;;;;;;;;23.70;52.40;;;;;;381406;288;362616;-55
2022/09/21 08:18:50;;;;;;;;;;;23.70;52.50;;;;;;380439;288;362106;-56
2022/09/21 08:20:51;;;;;;;;;;;23.60;52.50;;;;;;380069;288;400411;-58
2022/09/21 08:22:53;;;;;;;;;;;23.60;52.50;;;;;;380379;287;362801;-57
2022/09/21 08:24:55;;;;;;;;;;;23.60;52.50;;;;;;381235;288;362383;-54
2022/09/21 08:26:57;;;;;;;;;;;23.60;52.50;;;;;;380136;288;399202;-55
2022/09/21 08:28:59;;;;;;;;;;;23.60;52.50;;;;;;380022;288;363315;-52
2022/09/21 08:31:01;;;;;;;;;;;23.60;52.50;;;;;;381472;288;362415;-54
2022/09/21 08:33:03;;;;;;;;;;;23.60;52.40;;;;;;379989;288;401079;-55
2022/09/21 08:35:05;;;;;;;;;;;23.60;52.50;;;;;;379234;288;362704;-56
2022/09/21 08:37:06;;;;;;;;;;;23.60;52.50;;;;;;381510;288;362546;-55
2022/09/21 08:39:08;;;;;;;;;;;23.60;52.40;;;;;;380675;288;362532;-54
2022/09/21 08:41:11;;;;;;;;;;;23.60;52.50;;;;;;380335;288;362064;-53
2022/09/21 08:43:13;;;;;;;;;;;23.60;52.40;;;;;;380162;288;362354;-54
2022/09/21 08:45:15;;;;;;;;;;;23.60;52.40;;;;;;380681;289;363181;-55
2022/09/21 08:47:17;;;;;;;;;;;23.60;52.40;;;;;;379338;289;362015;-57
2022/09/21 08:49:19;;;;;;;;;;;23.60;52.40;;;;;;379541;289;362594;-57
2022/09/21 08:51:21;;;;;;;;;;;23.50;52.40;;;;;;380774;289;362393;-57
2022/09/21 08:53:23;;;;;;;;;;;23.50;52.40;;;;;;379631;289;362016;-52
2022/09/21 08:55:25;;;;;;;;;;;23.50;52.50;;;;;;379572;289;362522;-55
2022/09/21 08:57:26;;;;;;;;;;;23.50;52.40;;;;;;380186;289;362850;-52
2022/09/21 08:59:28;;;;;;;;;;;23.50;52.50;;;;;;380196;289;362521;-56
2022/09/21 09:01:30;;;;;;;;;;;23.50;52.40;;;;;;379434;289;363316;-56
2022/09/21 09:03:32;;;;;;;;;;;23.50;52.50;;;;;;380624;289;362358;-56
2022/09/21 09:05:33;;;;;;;;;;;23.50;52.50;;;;;;380190;289;362341;-52
2022/09/21 09:07:35;;;;;;;;;;;23.50;52.40;;;;;;379478;289;363694;-55
2022/09/21 09:09:37;;;;;;;;;;;23.50;52.40;;;;;;380767;289;362110;-54
2022/09/21 09:11:39;;;;;;;;;;;23.50;52.40;;;;;;379785;289;362501;-50
2022/09/21 09:13:40;;;;;;;;;;;23.50;52.40;;;;;;379469;289;362412;-55
2022/09/21 09:15:42;;;;;;;;;;;23.50;52.50;;;;;;380703;289;362429;-57
2022/09/21 09:17:44;;;;;;;;;;;23.50;52.50;;;;;;379808;289;362373;-55
2022/09/21 09:19:46;;;;;;;;;;;23.50;52.40;;;;;;379452;289;363973;-54
2022/09/21 09:21:47;;;;;;;;;;;23.50;52.40;;;;;;380654;289;362698;-57
2022/09/21 09:23:49;;;;;;;;;;;23.50;52.40;;;;;;379767;289;362885;-56
2022/09/21 09:25:51;;;;;;;;;;;23.40;52.40;;;;;;379366;289;362338;-52
2022/09/21 09:27:53;;;;;;;;;;;23.50;52.40;;;;;;380609;289;364532;-55
2022/09/21 09:29:55;;;;;;;;;;;23.40;52.50;;;;;;379439;289;398872;-51
2022/09/21 09:31:56;;;;;;;;;;;23.40;52.50;;;;;;379566;289;362086;-56
2022/09/21 09:33:58;;;;;;;;;;;23.40;52.50;;;;;;380766;289;361956;-57
2022/09/21 09:36:00;;;;;;;;;;;23.40;52.50;;;;;;379821;289;362665;-58
2022/09/21 09:38:02;;;;;;;;;;;23.40;52.50;;;;;;379333;289;362168;-58
2022/09/21 09:40:06;;;;;;;;;;;23.40;52.50;;;;;;380728;289;362597;-57
2022/09/21 09:42:07;;;;;;;;;;;23.40;52.50;;;;;;379316;289;399435;-55
2022/09/21 09:44:09;;;;;;;;;;;23.40;52.50;;;;;;378787;290;362386;-58
2022/09/21 09:46:11;;;;;;;;;;;23.40;52.50;;;;;;379911;290;363136;-54
2022/09/21 09:48:13;;;;;;;;;;;23.40;52.50;;;;;;379071;290;362918;-51
2022/09/21 09:50:14;;;;;;;;;;;23.40;52.50;;;;;;378678;290;363439;-56
2022/09/21 09:52:16;;;;;;;;;;;23.40;52.60;;;;;;379968;290;362337;-55
2022/09/21 09:54:18;;;;;;;;;;;23.40;52.60;;;;;;379103;290;362315;-57
2022/09/21 09:56:19;;;;;;;;;;;23.40;52.50;;;;;;378665;290;363772;-56
2022/09/21 09:58:22;;;;;;;;;;;23.40;52.60;;;;;;379911;290;362326;-56
2022/09/21 10:00:23;;;;;;;;;;;23.40;52.60;;;;;;378644;290;397850;-53
2022/09/21 10:02:25;;;;;;;;;;;23.40;52.50;;;;;;378574;290;361990;-53
2022/09/21 10:04:27;;;;;;;;;;;23.40;52.60;;;;;;379908;290;362655;-55
2022/09/21 10:06:29;;;;;;;;;;;23.40;52.50;;;;;;379099;290;362404;-54
2022/09/21 10:08:30;;;;;;;;;;;23.40;52.50;;;;;;378700;290;362136;-56
2022/09/21 10:10:32;;;;;;;;;;;23.40;52.60;;;;;;379944;290;362583;-56
2022/09/21 10:12:34;;;;;;;;;;;23.40;52.50;;;;;;379035;290;362025;-55
2022/09/21 10:14:35;;;;;;;;;;;23.40;52.50;;;;;;378725;290;362065;-55
2022/09/21 10:16:37;;;;;;;;;;;23.40;52.50;;;;;;379932;290;362389;-56
2022/09/21 10:18:39;;;;;;;;;;;23.40;52.50;;;;;;379084;290;362354;-54
2022/09/21 10:20:41;;;;;;;;;;;23.40;52.50;;;;;;378602;290;362710;-55
2022/09/21 10:22:43;;;;;;;;;;;23.40;52.50;;;;;;379803;290;362619;-54
2022/09/21 10:24:45;;;;;;;;;;;23.40;52.40;;;;;;379107;290;363377;-54
2022/09/21 10:26:46;;;;;;;;;;;23.40;52.50;;;;;;378622;290;362333;-55
2022/09/21 10:28:48;;;;;;;;;;;23.40;52.60;;;;;;379973;290;362384;-54
2022/09/21 10:30:50;;;;;;;;;;;23.40;52.60;;;;;;379054;290;362785;-54
2022/09/21 10:32:51;;;;;;;;;;;23.40;52.50;;;;;;378321;290;363310;-55
2022/09/21 10:34:53;;;;;;;;;;;23.40;52.50;;;;;;379919;290;362330;-55
2022/09/21 10:36:55;;;;;;;;;;;23.40;52.60;;;;;;379069;290;362533;-55
2022/09/21 10:38:57;;;;;;;;;;;23.40;52.50;;;;;;378486;290;362293;-58
2022/09/21 10:40:59;;;;;;;;;;;23.30;52.50;;;;;;379942;290;362853;-54
2022/09/21 10:43:00;;;;;;;;;;;23.40;52.60;;;;;;379379;289;361984;-56
2022/09/21 10:45:02;;;;;;;;;;;23.30;52.50;;;;;;379615;289;362416;-56
2022/09/21 10:47:04;;;;;;;;;;;23.30;52.60;;;;;;380593;289;364034;-56
2022/09/21 10:49:06;;;;;;;;;;;23.30;52.60;;;;;;379841;289;363186;-57
2022/09/21 10:51:07;;;;;;;;;;;23.30;52.60;;;;;;379143;289;362423;-57
2022/09/21 10:53:09;;;;;;;;;;;23.30;52.60;;;;;;380755;289;362085;-53
2022/09/21 10:55:11;;;;;;;;;;;23.30;52.50;;;;;;379918;289;363462;-56
2022/09/21 10:57:13;;;;;;;;;;;23.30;52.60;;;;;;379575;289;362057;-57
2022/09/21 10:59:14;;;;;;;;;;;23.30;52.60;;;;;;380770;289;362356;-53
2022/09/21 11:01:17;;;;;;;;;;;23.30;52.60;;;;;;379832;289;362517;-55
2022/09/21 11:03:18;;;;;;;;;;;23.30;52.60;;;;;;378826;289;362339;-55
2022/09/21 11:05:20;;;;;;;;;;;23.30;52.60;;;;;;380575;289;363500;-55
2022/09/21 11:07:22;;;;;;;;;;;23.30;52.60;;;;;;379866;289;362500;-56
2022/09/21 11:09:24;;;;;;;;;;;23.30;52.60;;;;;;379411;289;362797;-58
2022/09/21 11:11:26;;;;;;;;;;;23.30;52.60;;;;;;380678;289;361995;-55
2022/09/21 11:13:27;;;;;;;;;;;23.30;52.50;;;;;;379904;289;362309;-55
2022/09/21 11:15:29;;;;;;;;;;;23.30;52.60;;;;;;379443;289;362396;-55
2022/09/21 11:17:31;;;;;;;;;;;23.30;52.60;;;;;;380516;289;362338;-56
2022/09/21 11:19:33;;;;;;;;;;;23.30;52.60;;;;;;379833;289;362293;-55
2022/09/21 11:21:35;;;;;;;;;;;23.30;52.60;;;;;;379340;289;363613;-54
2022/09/21 11:23:37;;;;;;;;;;;23.30;52.60;;;;;;380498;289;362377;-57
2022/09/21 11:25:38;;;;;;;;;;;23.30;52.60;;;;;;379760;289;362055;-56
2022/09/21 11:27:40;;;;;;;;;;;23.30;52.70;;;;;;379509;289;362596;-52
2022/09/21 11:29:42;;;;;;;;;;;23.30;52.60;;;;;;380731;289;363454;-54
2022/09/21 11:31:44;;;;;;;;;;;23.30;52.60;;;;;;379824;289;364063;-54
2022/09/21 11:33:45;;;;;;;;;;;23.30;52.70;;;;;;379407;289;362394;-55
2022/09/21 11:35:47;;;;;;;;;;;23.30;52.70;;;;;;380648;289;362633;-53
2022/09/21 11:37:49;;;;;;;;;;;23.30;52.70;;;;;;379364;289;398782;-57
2022/09/21 11:39:51;;;;;;;;;;;23.30;52.70;;;;;;379507;289;362376;-56
2022/09/21 11:41:52;;;;;;;;;;;23.30;52.70;;;;;;380531;289;363030;-57
2022/09/21 11:43:54;;;;;;;;;;;23.30;52.70;;;;;;379723;289;362426;-56
2022/09/21 11:45:57;;;;;;;;;;;23.30;52.70;;;;;;379553;289;362487;-57